createdAt,value
2023-01-26T00:00:05.432Z,2.40
2023-01-26T00:02:33.813Z,2.83
2023-01-26T00:05:02.180Z,2.40
2023-01-26T00:07:30.808Z,2.73
2023-01-26T00:09:59.175Z,5.00
2023-01-26T00:12:27.553Z,3.57
2023-01-26T00:14:56.016Z,3.40
2023-01-26T00:17:27.269Z,4.33
2023-01-26T00:19:57.960Z,4.17
2023-01-26T00:22:28.656Z,3.00
2023-01-26T00:24:57.115Z,3.00
2023-01-26T00:27:25.564Z,3.13
2023-01-26T00:29:54.086Z,4.80
2023-01-26T00:32:22.588Z,3.90
2023-01-26T00:34:51.071Z,4.07
2023-01-26T00:37:19.467Z,3.20
2023-01-26T00:39:48.191Z,3.57
2023-01-26T00:42:16.777Z,3.70
2023-01-26T00:44:45.306Z,3.17
2023-01-26T00:47:15.063Z,5.40
2023-01-26T00:49:43.651Z,5.37
2023-01-26T00:52:15.643Z,4.30
2023-01-26T00:54:44.093Z,3.83
2023-01-26T00:57:12.786Z,3.20
2023-01-26T00:59:41.162Z,4.10
2023-01-26T01:02:09.656Z,4.13
2023-01-26T01:04:38.124Z,3.70
2023-01-26T01:07:06.506Z,4.00
2023-01-26T01:09:34.959Z,4.40
2023-01-26T01:12:03.440Z,3.87
2023-01-26T01:14:31.911Z,4.33
2023-01-26T01:17:00.448Z,4.03
2023-01-26T01:19:29.306Z,4.10
2023-01-26T01:21:57.694Z,3.33
2023-01-26T01:24:26.495Z,4.30
2023-01-26T01:26:54.855Z,4.60
2023-01-26T01:29:23.207Z,4.97
2023-01-26T01:31:51.669Z,5.97
2023-01-26T01:34:20.108Z,4.70
2023-01-26T01:36:48.673Z,5.03
2023-01-26T01:41:43.725Z,5.03
2023-01-26T01:44:24.253Z,4.93
2023-01-26T01:46:52.683Z,4.50
2023-01-26T01:50:05.344Z,5.17
2023-01-26T01:52:33.835Z,5.77
2023-01-26T01:55:08.296Z,5.37
2023-01-26T01:57:48.694Z,5.90
2023-01-26T02:00:21.575Z,6.13
2023-01-26T02:03:19.930Z,6.33
2023-01-26T02:06:22.107Z,6.07
2023-01-26T02:08:54.296Z,5.97
2023-01-26T02:11:31.470Z,7.17
2023-01-26T02:14:01.671Z,6.90
2023-01-26T02:16:30.133Z,7.40
2023-01-26T02:18:58.603Z,6.93
2023-01-26T02:21:27.527Z,7.70
2023-01-26T02:24:13.669Z,6.80
2023-01-26T02:26:42.467Z,6.80
2023-01-26T02:29:12.265Z,7.83
2023-01-26T02:31:42.335Z,6.93
2023-01-26T02:34:10.761Z,7.60
2023-01-26T02:36:39.425Z,7.83
2023-01-26T02:39:34.364Z,7.17
2023-01-26T02:42:21.413Z,6.50
2023-01-26T02:44:49.938Z,8.00
2023-01-26T02:47:20.410Z,6.67
2023-01-26T02:49:48.830Z,6.80
2023-01-26T02:52:24.731Z,7.67
2023-01-26T02:55:12.061Z,7.10
2023-01-26T02:57:40.794Z,7.30
2023-01-26T03:00:18.133Z,7.73
2023-01-26T03:02:49.038Z,7.33
2023-01-26T03:05:17.514Z,7.77
2023-01-26T03:07:46.008Z,7.03
2023-01-26T03:10:14.794Z,6.63
2023-01-26T03:12:43.342Z,7.43
2023-01-26T03:15:30.806Z,7.20
2023-01-26T03:18:29.909Z,7.57
2023-01-26T03:21:19.576Z,7.50
2023-01-26T03:24:06.887Z,7.27
2023-01-26T03:26:54.005Z,7.20
2023-01-26T03:29:23.036Z,7.83
2023-01-26T03:31:51.410Z,8.20
2023-01-26T03:34:21.290Z,8.00
2023-01-26T03:36:52.722Z,9.93
2023-01-26T03:39:39.659Z,9.00
2023-01-26T03:42:26.574Z,14.23
2023-01-26T03:45:13.505Z,13.30
2023-01-26T03:48:00.350Z,12.40
2023-01-26T03:50:47.367Z,9.70
2023-01-26T03:53:38.648Z,11.03
2023-01-26T03:56:37.241Z,9.40
2023-01-26T03:59:10.845Z,9.33
2023-01-26T04:01:42.636Z,9.30
2023-01-26T04:04:30.919Z,7.97
2023-01-26T04:07:17.820Z,8.20
2023-01-26T04:09:46.174Z,8.17
2023-01-26T04:12:14.921Z,9.50
2023-01-26T04:15:01.851Z,8.97
2023-01-26T04:17:48.779Z,10.03
2023-01-26T04:20:35.800Z,10.73
2023-01-26T04:23:04.199Z,8.97
2023-01-26T04:25:32.574Z,9.50
2023-01-26T04:28:00.968Z,8.20
2023-01-26T04:30:29.367Z,8.83
2023-01-26T04:32:57.790Z,9.13
2023-01-26T04:35:26.210Z,8.80
2023-01-26T04:37:54.579Z,9.73
2023-01-26T04:40:23.010Z,9.07
2023-01-26T04:42:51.394Z,9.90
2023-01-26T04:45:19.765Z,9.27
2023-01-26T04:47:48.204Z,10.43
2023-01-26T04:50:16.870Z,9.80
2023-01-26T04:52:45.391Z,10.87
2023-01-26T04:55:13.783Z,15.83
2023-01-26T04:57:42.187Z,12.63
2023-01-26T05:00:13.058Z,12.90
2023-01-26T05:02:41.725Z,11.80
2023-01-26T05:05:10.602Z,13.50
2023-01-26T05:07:38.962Z,13.60
2023-01-26T05:10:07.793Z,10.30
2023-01-26T05:12:36.392Z,11.67
2023-01-26T05:15:04.943Z,11.40
2023-01-26T05:17:33.534Z,10.60
2023-01-26T05:20:01.941Z,14.40
2023-01-26T05:22:30.307Z,13.57
2023-01-26T05:24:58.668Z,11.90
2023-01-26T05:27:27.120Z,11.33
2023-01-26T05:30:01.075Z,11.00
2023-01-26T05:32:31.205Z,11.30
2023-01-26T05:34:59.693Z,12.30
2023-01-26T05:37:29.527Z,12.87
2023-01-26T05:39:58.011Z,14.10
2023-01-26T05:42:27.238Z,12.80
2023-01-26T05:44:55.658Z,13.97
2023-01-26T05:47:24.243Z,12.87
2023-01-26T05:49:52.742Z,12.73
2023-01-26T05:52:23.012Z,14.30
2023-01-26T05:54:51.418Z,13.83
2023-01-26T05:57:20.036Z,15.30
2023-01-26T05:59:48.490Z,13.20
2023-01-26T06:02:17.223Z,13.83
2023-01-26T06:04:45.699Z,15.90
2023-01-26T06:07:17.161Z,14.50
2023-01-26T06:09:46.438Z,16.73
2023-01-26T06:12:20.601Z,16.20
2023-01-26T06:14:49.081Z,15.83
2023-01-26T06:17:18.650Z,15.40
2023-01-26T06:19:47.081Z,16.43
2023-01-26T06:22:16.185Z,17.20
2023-01-26T06:24:44.608Z,17.07
2023-01-26T06:27:17.658Z,15.80
2023-01-26T06:29:46.854Z,16.43
2023-01-26T06:32:16.017Z,15.37
2023-01-26T06:34:44.466Z,17.10
2023-01-26T06:37:14.728Z,15.57
2023-01-26T06:39:43.263Z,16.00
2023-01-26T06:42:11.776Z,17.70
2023-01-26T06:44:40.167Z,17.50
2023-01-26T06:47:08.545Z,17.20
2023-01-26T06:49:37.022Z,19.43
2023-01-26T06:52:32.292Z,18.77
2023-01-26T06:55:01.717Z,17.37
2023-01-26T06:57:30.162Z,16.70
2023-01-26T06:59:58.781Z,18.90
2023-01-26T07:02:27.210Z,15.13
2023-01-26T07:04:55.613Z,16.00
2023-01-26T07:07:24.004Z,18.00
2023-01-26T07:09:52.678Z,16.27
2023-01-26T07:12:21.075Z,15.53
2023-01-26T07:14:52.134Z,16.77
2023-01-26T07:17:20.872Z,16.43
2023-01-26T07:19:49.269Z,16.93
2023-01-26T07:22:17.664Z,17.00
2023-01-26T07:24:46.018Z,18.50
2023-01-26T07:27:14.375Z,17.00
2023-01-26T07:29:42.800Z,16.40
2023-01-26T07:32:11.212Z,16.63
2023-01-26T07:34:39.590Z,15.77
2023-01-26T07:37:08.115Z,17.80
2023-01-26T07:39:36.524Z,18.40
2023-01-26T07:42:05.047Z,16.60
2023-01-26T07:44:33.562Z,14.87
2023-01-26T07:47:01.971Z,17.63
2023-01-26T07:49:30.369Z,19.10
2023-01-26T07:51:58.788Z,16.33
2023-01-26T07:54:27.205Z,17.20
2023-01-26T07:56:55.990Z,17.17
2023-01-26T07:59:25.010Z,20.60
2023-01-26T08:01:53.751Z,20.40
2023-01-26T08:04:22.210Z,21.27
2023-01-26T08:06:53.717Z,14.90
2023-01-26T08:09:22.434Z,18.47
2023-01-26T08:11:50.805Z,16.53
2023-01-26T08:14:19.342Z,16.63
2023-01-26T08:16:48.385Z,14.50
2023-01-26T08:19:16.858Z,15.50
2023-01-26T08:21:45.419Z,15.87
2023-01-26T08:24:14.350Z,16.40
2023-01-26T08:26:42.916Z,16.33
2023-01-26T08:29:11.472Z,16.67
2023-01-26T08:31:39.902Z,15.33
2023-01-26T08:34:08.289Z,15.60
2023-01-26T08:36:36.749Z,15.23
2023-01-26T08:39:05.257Z,16.37
2023-01-26T08:41:34.352Z,15.50
2023-01-26T08:44:02.871Z,17.27
2023-01-26T08:46:31.250Z,15.10
2023-01-26T08:49:00.564Z,14.60
2023-01-26T08:51:29.222Z,16.50
2023-01-26T08:53:57.720Z,14.70
2023-01-26T08:56:26.111Z,15.53
2023-01-26T08:58:54.542Z,15.00
2023-01-26T09:01:22.957Z,14.90
2023-01-26T09:03:53.680Z,16.87
2023-01-26T09:06:22.180Z,15.23
2023-01-26T09:08:50.625Z,14.90
2023-01-26T09:11:18.997Z,15.13
2023-01-26T09:13:57.349Z,15.73
2023-01-26T09:16:26.432Z,16.40
2023-01-26T09:18:55.299Z,17.77
2023-01-26T09:21:26.854Z,17.33
2023-01-26T09:23:58.036Z,15.00
2023-01-26T09:26:26.464Z,15.93
2023-01-26T09:28:54.867Z,17.70
2023-01-26T09:31:23.365Z,16.73
2023-01-26T09:33:52.606Z,18.00
2023-01-26T09:36:21.002Z,15.67
2023-01-26T09:38:49.417Z,16.80
2023-01-26T09:41:44.102Z,15.20
2023-01-26T09:44:19.599Z,18.43
2023-01-26T09:47:19.618Z,17.73
2023-01-26T09:50:00.832Z,16.83
2023-01-26T09:52:31.915Z,16.70
2023-01-26T09:55:04.426Z,18.93
2023-01-26T09:57:43.113Z,17.97
2023-01-26T10:00:21.158Z,17.23
2023-01-26T10:03:11.061Z,17.37
2023-01-26T10:06:06.969Z,16.10
2023-01-26T10:08:35.653Z,18.10
2023-01-26T10:11:11.366Z,18.70
2023-01-26T10:13:39.881Z,18.93
2023-01-26T10:16:11.407Z,17.00
2023-01-26T10:19:04.755Z,17.43
2023-01-26T10:21:38.036Z,17.43
2023-01-26T10:24:07.040Z,17.00
2023-01-26T10:26:35.541Z,16.90
2023-01-26T10:29:05.466Z,15.73
2023-01-26T10:31:35.674Z,16.30
2023-01-26T10:34:15.736Z,17.20
2023-01-26T10:36:47.205Z,17.13
2023-01-26T10:39:18.329Z,16.00
2023-01-26T10:42:18.969Z,17.10
2023-01-26T10:44:47.868Z,17.40
2023-01-26T10:47:21.416Z,18.23
2023-01-26T10:49:50.755Z,15.53
2023-01-26T10:52:26.381Z,18.30
2023-01-26T10:55:21.715Z,17.10
2023-01-26T10:57:50.350Z,16.20
2023-01-26T11:00:25.057Z,15.70
2023-01-26T11:03:04.418Z,14.97
2023-01-26T11:05:33.204Z,15.40
2023-01-26T11:08:03.826Z,15.57
2023-01-26T11:10:39.938Z,15.47
2023-01-26T11:13:22.831Z,15.20
2023-01-26T11:16:11.855Z,14.47
2023-01-26T11:19:01.599Z,14.60
2023-01-26T11:21:36.188Z,14.90
2023-01-26T11:24:26.619Z,16.10
2023-01-26T11:27:19.794Z,17.20
2023-01-26T11:29:56.424Z,15.07
2023-01-26T11:32:50.437Z,14.83
2023-01-26T11:35:51.140Z,15.67
2023-01-26T11:38:41.118Z,15.30
2023-01-26T11:41:46.254Z,15.33
2023-01-26T11:44:22.798Z,14.40
2023-01-26T11:47:14.073Z,15.30
2023-01-26T11:50:08.944Z,16.20
2023-01-26T11:52:47.367Z,15.70
2023-01-26T11:55:26.834Z,16.83
2023-01-26T11:58:13.670Z,16.10
2023-01-26T12:01:10.738Z,16.47
2023-01-26T12:03:47.614Z,15.10
2023-01-26T12:06:22.061Z,17.23
2023-01-26T12:09:04.265Z,17.30
2023-01-26T12:12:11.048Z,15.37
2023-01-26T12:14:42.252Z,17.23
2023-01-26T12:17:32.411Z,15.93
2023-01-26T12:20:25.304Z,16.40
2023-01-26T12:23:11.601Z,15.53
2023-01-26T12:25:42.006Z,15.07
2023-01-26T12:28:23.016Z,14.97
2023-01-26T12:31:10.789Z,15.60
2023-01-26T12:33:39.713Z,15.00
2023-01-26T12:36:20.255Z,15.13
2023-01-26T12:39:09.590Z,17.40
2023-01-26T12:41:43.704Z,15.57
2023-01-26T12:44:34.361Z,18.27
2023-01-26T12:47:24.555Z,16.90
2023-01-26T12:50:09.506Z,16.70
2023-01-26T12:52:44.454Z,14.97
2023-01-26T12:55:36.484Z,16.60
2023-01-26T12:58:12.290Z,15.80
2023-01-26T13:00:41.476Z,14.97
2023-01-26T13:03:26.851Z,16.00
2023-01-26T13:06:19.929Z,15.20
2023-01-26T13:09:21.157Z,15.67
2023-01-26T13:12:02.304Z,14.37
2023-01-26T13:15:00.835Z,16.07
2023-01-26T13:17:29.204Z,15.60
2023-01-26T13:20:00.872Z,16.63
2023-01-26T13:22:42.618Z,18.13
2023-01-26T13:25:35.107Z,19.00
2023-01-26T13:28:14.778Z,17.67
2023-01-26T13:30:47.279Z,17.10
2023-01-26T13:33:23.941Z,18.63
2023-01-26T13:35:55.522Z,16.73
2023-01-26T13:38:29.219Z,17.80
2023-01-26T13:40:59.768Z,15.73
2023-01-26T13:43:43.553Z,18.47
2023-01-26T13:46:36.176Z,15.33
2023-01-26T13:49:04.719Z,17.20
2023-01-26T13:51:35.489Z,18.17
2023-01-26T13:54:03.798Z,16.53
2023-01-26T13:56:38.117Z,17.70
2023-01-26T13:59:15.853Z,18.23
2023-01-26T14:01:44.251Z,19.87
2023-01-26T14:04:30.591Z,15.90
2023-01-26T14:07:07.852Z,16.83
2023-01-26T14:09:56.039Z,18.27
2023-01-26T14:12:26.183Z,16.53
2023-01-26T14:14:57.068Z,16.07
2023-01-26T14:17:33.758Z,16.20
2023-01-26T14:20:04.491Z,16.00
2023-01-26T14:22:32.954Z,17.40
2023-01-26T14:25:01.391Z,14.73
2023-01-26T14:27:40.105Z,15.43
2023-01-26T14:30:23.945Z,16.00
2023-01-26T14:33:04.948Z,14.20
2023-01-26T14:35:33.857Z,15.10
2023-01-26T14:38:16.723Z,16.33
2023-01-26T14:40:55.877Z,15.40
2023-01-26T14:43:24.956Z,14.50
2023-01-26T14:46:11.946Z,15.83
2023-01-26T14:48:51.827Z,14.50
2023-01-26T14:51:23.706Z,15.47
2023-01-26T14:54:26.161Z,13.53
2023-01-26T14:56:54.719Z,14.33
2023-01-26T14:59:28.538Z,13.60
2023-01-26T15:02:18.479Z,13.57
2023-01-26T15:05:21.455Z,15.40
2023-01-26T15:08:08.073Z,13.87
2023-01-26T15:10:41.488Z,14.40
2023-01-26T15:13:12.753Z,14.10
2023-01-26T15:15:43.663Z,12.00
2023-01-26T15:18:15.057Z,12.80
2023-01-26T15:20:51.272Z,12.33
2023-01-26T15:23:28.061Z,13.93
2023-01-26T15:25:57.222Z,12.13
2023-01-26T15:28:27.264Z,12.40
2023-01-26T15:30:58.734Z,11.67
2023-01-26T15:33:42.083Z,11.63
2023-01-26T15:36:36.825Z,11.07
2023-01-26T15:39:16.359Z,11.27
2023-01-26T15:41:46.577Z,11.33
2023-01-26T15:44:17.846Z,11.07
2023-01-26T15:46:47.249Z,11.20
2023-01-26T15:49:20.707Z,10.60
2023-01-26T15:51:49.108Z,11.13
2023-01-26T15:54:17.578Z,10.67
2023-01-26T15:56:46.079Z,10.10
2023-01-26T15:59:14.516Z,10.67
2023-01-26T16:01:43.011Z,10.63
2023-01-26T16:04:14.749Z,10.80
2023-01-26T16:06:43.367Z,11.00
2023-01-26T16:09:11.723Z,10.83
2023-01-26T16:11:52.227Z,10.60
2023-01-26T16:14:21.136Z,10.87
2023-01-26T16:16:49.946Z,11.80
2023-01-26T16:19:34.438Z,10.17
2023-01-26T16:22:03.630Z,11.37
2023-01-26T16:24:31.997Z,10.40
2023-01-26T16:27:00.425Z,10.23
2023-01-26T16:29:28.943Z,13.10
2023-01-26T16:31:57.386Z,11.90
2023-01-26T16:34:25.781Z,12.03
2023-01-26T16:36:54.340Z,11.90
2023-01-26T16:39:23.030Z,11.27
2023-01-26T16:41:51.514Z,12.10
2023-01-26T16:44:20.599Z,10.70
2023-01-26T16:46:48.987Z,12.20
2023-01-26T16:49:17.540Z,11.97
2023-01-26T16:51:46.246Z,10.60
2023-01-26T16:54:14.642Z,11.17
2023-01-26T16:56:43.087Z,10.60
2023-01-26T16:59:11.613Z,11.40
2023-01-26T17:01:41.198Z,11.70
2023-01-26T17:04:11.856Z,12.60
2023-01-26T17:06:40.258Z,11.27
2023-01-26T17:09:08.656Z,11.40
2023-01-26T17:11:37.065Z,13.17
2023-01-26T17:14:05.585Z,11.63
2023-01-26T17:16:34.098Z,12.00
2023-01-26T17:19:03.162Z,10.70
2023-01-26T17:21:31.522Z,12.20
2023-01-26T17:24:00.085Z,11.40
2023-01-26T17:26:28.685Z,13.20
2023-01-26T17:28:57.407Z,12.40
2023-01-26T17:31:26.644Z,11.83
2023-01-26T17:33:56.401Z,13.57
2023-01-26T17:36:24.883Z,12.47
2023-01-26T17:38:53.920Z,12.70
2023-01-26T17:41:22.386Z,12.43
2023-01-26T17:43:52.068Z,12.90
2023-01-26T17:46:22.648Z,12.30
2023-01-26T17:48:51.806Z,11.80
2023-01-26T17:51:22.196Z,12.80
2023-01-26T17:53:51.553Z,10.40
2023-01-26T17:56:22.025Z,11.57
2023-01-26T17:58:55.549Z,12.70
2023-01-26T18:01:27.736Z,10.60
2023-01-26T18:03:56.386Z,11.77
2023-01-26T18:06:24.830Z,11.90
2023-01-26T18:08:53.225Z,12.00
2023-01-26T18:11:22.597Z,10.57
2023-01-26T18:13:52.635Z,9.83
2023-01-26T18:16:22.101Z,12.00
2023-01-26T18:18:54.774Z,10.47
2023-01-26T18:21:26.479Z,11.13
2023-01-26T18:23:58.691Z,10.57
2023-01-26T18:26:30.098Z,11.27
2023-01-26T18:28:59.337Z,11.47
2023-01-26T18:31:30.755Z,11.50
2023-01-26T18:34:00.806Z,10.20
2023-01-26T18:36:30.314Z,12.17
2023-01-26T18:39:05.921Z,11.20
2023-01-26T18:41:34.797Z,10.20
2023-01-26T18:44:04.527Z,10.97
2023-01-26T18:46:33.048Z,10.27
2023-01-26T18:49:01.514Z,11.23
2023-01-26T18:51:37.927Z,11.30
2023-01-26T18:54:06.569Z,10.70
2023-01-26T18:56:35.839Z,10.40
2023-01-26T18:59:04.295Z,11.27
2023-01-26T19:01:32.740Z,11.17
2023-01-26T19:04:03.632Z,10.33
2023-01-26T19:06:33.423Z,11.67
2023-01-26T19:09:07.876Z,14.60
2023-01-26T19:11:38.912Z,12.87
2023-01-26T19:14:08.557Z,11.00
2023-01-26T19:16:37.163Z,11.33
2023-01-26T19:19:06.038Z,12.33
2023-01-26T19:21:34.525Z,11.20
2023-01-26T19:24:09.093Z,13.87
2023-01-26T19:26:37.505Z,12.07
2023-01-26T19:29:06.430Z,15.03
2023-01-26T19:31:36.641Z,13.10
2023-01-26T19:34:07.569Z,12.37
2023-01-26T19:36:37.399Z,13.50
2023-01-26T19:39:07.100Z,11.90
2023-01-26T19:41:36.014Z,12.03
2023-01-26T19:44:04.388Z,12.50
2023-01-26T19:46:33.282Z,12.50
2023-01-26T19:49:01.831Z,12.60
2023-01-26T19:51:30.332Z,12.97
2023-01-26T19:54:00.299Z,11.80
2023-01-26T19:56:31.491Z,11.07
2023-01-26T19:59:02.053Z,11.23
2023-01-26T20:01:32.243Z,11.17
2023-01-26T20:04:03.251Z,12.50
2023-01-26T20:06:33.638Z,11.83
2023-01-26T20:09:04.327Z,11.37
2023-01-26T20:11:33.149Z,11.10
2023-01-26T20:14:04.470Z,12.83
2023-01-26T20:16:34.949Z,13.80
2023-01-26T20:19:04.099Z,14.07
2023-01-26T20:21:33.573Z,13.60
2023-01-26T20:24:06.299Z,13.10
2023-01-26T20:26:35.907Z,12.73
2023-01-26T20:29:04.518Z,13.43
2023-01-26T20:31:33.915Z,13.33
2023-01-26T20:34:02.908Z,17.17
2023-01-26T20:36:32.159Z,15.13
2023-01-26T20:39:00.606Z,15.90
2023-01-26T20:41:31.202Z,13.20
2023-01-26T20:44:03.640Z,12.97
2023-01-26T20:46:41.295Z,14.47
2023-01-26T20:49:14.515Z,14.47
2023-01-26T20:51:44.303Z,12.17
2023-01-26T20:54:15.353Z,11.10
2023-01-26T20:56:46.486Z,13.80
2023-01-26T20:59:14.870Z,13.10
2023-01-26T21:01:43.314Z,14.10
2023-01-26T21:04:11.711Z,12.97
2023-01-26T21:06:40.678Z,13.00
2023-01-26T21:09:11.580Z,12.37
2023-01-26T21:11:41.306Z,12.50
2023-01-26T21:14:14.341Z,13.90
2023-01-26T21:16:43.150Z,14.13
2023-01-26T21:19:11.602Z,10.00
2023-01-26T21:21:39.986Z,11.13
2023-01-26T21:24:08.822Z,11.00
2023-01-26T21:26:37.250Z,12.70
2023-01-26T21:29:06.355Z,12.93
2023-01-26T21:31:35.674Z,11.13
2023-01-26T21:34:04.135Z,11.73
2023-01-26T21:36:34.807Z,11.17
2023-01-26T21:39:03.506Z,12.47
2023-01-26T21:41:52.189Z,11.17
2023-01-26T21:44:25.069Z,11.87
2023-01-26T21:46:59.404Z,12.43
2023-01-26T21:49:29.423Z,11.80
2023-01-26T21:52:16.574Z,12.50
2023-01-26T21:54:45.034Z,12.13
2023-01-26T21:57:31.723Z,10.73
2023-01-26T22:00:00.156Z,12.13
2023-01-26T22:02:28.528Z,13.60
2023-01-26T22:04:56.914Z,11.67
2023-01-26T22:07:25.368Z,11.57
2023-01-26T22:09:53.723Z,12.30
2023-01-26T22:12:23.746Z,12.93
2023-01-26T22:14:55.050Z,13.50
2023-01-26T22:17:23.705Z,12.87
2023-01-26T22:19:52.165Z,12.93
2023-01-26T22:22:20.695Z,12.70
2023-01-26T22:24:49.126Z,15.13
2023-01-26T22:27:17.483Z,13.33
2023-01-26T22:29:45.885Z,11.57
2023-01-26T22:32:14.462Z,12.07
2023-01-26T22:34:42.814Z,12.47
2023-01-26T22:37:11.239Z,11.60
2023-01-26T22:39:39.604Z,13.20
2023-01-26T22:42:08.051Z,12.70
2023-01-26T22:44:36.605Z,11.20
2023-01-26T22:47:05.575Z,12.07
2023-01-26T22:49:33.957Z,11.77
2023-01-26T22:52:02.366Z,11.53
2023-01-26T22:54:30.772Z,11.13
2023-01-26T22:56:59.130Z,10.90
2023-01-26T22:59:27.614Z,11.67
2023-01-26T23:01:56.025Z,10.77
2023-01-26T23:04:24.432Z,10.77
2023-01-26T23:06:52.857Z,11.00
2023-01-26T23:09:21.305Z,10.30
2023-01-26T23:11:49.689Z,10.93
2023-01-26T23:14:18.158Z,12.47
2023-01-26T23:16:46.621Z,13.17
2023-01-26T23:19:15.018Z,13.17
2023-01-26T23:21:43.447Z,13.00
2023-01-26T23:24:11.846Z,12.43
2023-01-26T23:26:40.274Z,11.97
2023-01-26T23:29:08.718Z,11.37
2023-01-26T23:31:37.144Z,11.13
2023-01-26T23:34:05.585Z,10.40
2023-01-26T23:36:36.984Z,11.80
2023-01-26T23:39:05.384Z,9.50
2023-01-26T23:41:33.737Z,10.90
2023-01-26T23:44:02.155Z,10.70
2023-01-26T23:46:30.670Z,9.80
2023-01-26T23:48:59.125Z,9.87
2023-01-26T23:51:27.531Z,11.33
2023-01-26T23:53:56.654Z,10.70
2023-01-26T23:56:25.065Z,12.37
2023-01-26T23:58:53.514Z,11.23
